x

Sentry Shoal (46131) Wave Buoy

5:00 - Fri 6th May 2016 All times are PDT. -7 hours from GMT.

  • Sig Wave height 0.3ft
  • Peak Period 2s
  • Wind
    4mph, 7mph gusts
  • Sea Temp 57°f
  • Air Temp 65°f
  • Sea Pressure 1016.9mb
  • Sentry Shoal
  • Sentry Shoal

More Historic Weather Station data

Upgrade to MSW Pro to gain access to the past 30 days of data for over 8000 Wavebouys and Weather Stations around the globe.

Join Pro

Comparision Forecast

View Surf forecast
   
ven. 05/06 5:00 0.3ft 2s 4 7 mph 1016.9mb 57f 65f
4:00 0.3ft 2s 9 11 mph 1017.7mb 56f 66f
3:00 0.3ft 2s 9 11 mph 1018.5mb 55f 65f
2:00 0.3ft 2s 9 11 mph 1019.4mb 56f 63f
1:00 0.3ft 2s 2
mph
1020.2mb 55f 61f
12:00 0.7ft 2s 7 9 mph 1020.7mb 54f 59f
11:00 0.7ft 2s 9 11 mph 1021mb 53f 56f
10:00 1ft 2s 11 13 mph 1021.7mb 53f 54f
9:00 1.3ft 3s 13 16 mph 1021.8mb 53f 53f
8:00 1.3ft 3s 16 18 mph 1021.5mb 53f 52f
7:00 1.3ft 3s 13 16 mph 1021.6mb 53f 53f
6:00 1.3ft 2s 11 13 mph 1021.5mb 53f 52f
5:00 1.3ft 2s 16 18 mph 1021.1mb 53f 53f
4:00 1.3ft 3s 16 18 mph 1020.8mb 53f 54f
3:00 1ft 3s 16 18 mph 1020.5mb 53f 54f
2:00 1ft 2s 13 16 mph 1020.4mb 53f 55f
1:00 1ft 3s 13
mph
1020.3mb 53f 55f
12:00 1.3ft 2s 13 16 mph 1020.2mb 53f 56f
jeu. 05/05 11:00 1ft 2s 13 16 mph 1019.8mb 53f 56f
10:00 1ft 2s 13
mph
1019.3mb 54f 58f
9:00 0.7ft 2s 13
mph
1018.5mb 55f 60f
8:00 0.3ft 3s 11 13 mph 1017.9mb 56f 61f
7:00 0.3ft 3s 9
mph
1017.1mb 57f 61f
6:00  -  3s 7 9 mph 1016.9mb 58f 63f
5:00 0.3ft 3s 7
mph
1017.1mb 57f 64f
4:00 0.3ft 3s 4
mph
1017.4mb 57f 62f
3:00  -  2s 2 4 mph 1018.2mb 56f 60f
2:00 0.3ft 2s 4
mph
1018.6mb 55f 59f
1:00 0.3ft 2s 7 9 mph 1018.9mb 55f 57f
12:00 0.7ft 3s 7
mph
1019.3mb 54f 55f
11:00 0.7ft 2s 11 13 mph 1019.5mb 53f 53f
10:00 1.3ft 2s 11 13 mph 1019.5mb 53f 52f
9:00 1.3ft 3s 16 18 mph 1019.2mb 53f 51f
8:00 1.3ft 3s 16 18 mph 1018.9mb 53f 50f
7:00 1.6ft 3s 18 22 mph 1018.6mb 53f 50f
6:00 1.6ft 2s 18 20 mph 1018.4mb 53f 49f
5:00 2ft 3s 18 20 mph 1018.3mb 53f 50f
4:00 2ft 3s 18 20 mph 1017.9mb 53f 50f
3:00 2ft 3s 18 20 mph 1017.8mb 54f 50f
2:00  -   -  16
mph
- - -
1:00 2ft 3s 16 18 mph 1017.6mb 54f 51f
12:00 2ft 3s 18 20 mph 1017.5mb 54f 52f
mer. 05/04 11:00 1.6ft 2s 18 20 mph 1017.4mb 54f 53f
10:00 1.3ft 7s 16 20 mph 1017.3mb 54f 54f
9:00 1.6ft 3s 13 18 mph 1016.8mb 54f 55f
8:00 1.3ft 2s 18 22 mph 1015.9mb 54f 56f
7:00 1.3ft 3s 13 18 mph 1015.8mb 54f 57f
6:00 1ft 3s 13
mph
1016.1mb 54f 57f
5:00 1ft 3s 9 11 mph 1016.4mb 55f 57f
4:00 1.3ft 3s 9 11 mph 1017mb 54f 56f
3:00 1.6ft 3s 13 16 mph 1017.5mb 54f 56f
2:00 1.6ft 3s 13 18 mph 1018.1mb 53f 55f
1:00 2ft 3s 16 18 mph 1018.6mb 53f 54f
12:00 2ft 3s 18 20 mph 1019.3mb 53f 52f
11:00 2.5ft 3s 18 22 mph 1019.4mb 53f 51f
9:00 2ft 3s 18 22 mph 1020mb 54f 50f
8:00 2.5ft 3s 20 25 mph 1020.1mb 54f 49f
7:00 2ft 3s 22 27 mph 1020.2mb 54f 48f
6:00 2ft 3s 20 22 mph 1020.2mb 54f 48f
5:00 2ft 3s 20 25 mph 1020.1mb 54f 49f
4:00 1.6ft 3s 16 18 mph 1020.4mb 54f 49f
3:00 1.6ft 3s 16 20 mph 1020.4mb 54f 48f
2:00 2ft 3s 13 18 mph 1021mb 53f 50f
1:00 1.6ft 3s 16 20 mph 1021mb 53f 50f
12:00 2.5ft 4s 16 18 mph 1021mb 54f 51f
mar. 05/03 11:00 2.5ft 4s 22 25 mph 1020.3mb 55f 51f
10:00 2.5ft 4s 18 22 mph 1020mb 55f 51f
9:00 2.5ft 3s 22 27 mph 1018.9mb 55f 52f
8:00 1.3ft 3s 20 27 mph 1017.8mb 56f 54f
7:00 1.3ft 3s 13 16 mph 1016.9mb 56f 58f
6:00 0.3ft 3s 4 9 mph 1017mb 56f 58f
5:00 0.3ft 3s 9 11 mph 1017mb 56f 58f
4:00 0.3ft 5s 2
mph
1017.3mb 56f 57f
3:00 0.3ft 5s 7 9 mph 1017.5mb 56f 57f
2:00 0.3ft 3s 7
mph
1017.5mb 56f 57f
1:00 0.3ft 2s 4 7 mph 1017.6mb 56f 56f
12:00 0.3ft 2s 4 7 mph 1017.7mb 56f 55f
11:00 0.3ft 2s 4 7 mph 1017.4mb 56f 54f
10:00 0.3ft 2s 2 4 mph 1017.3mb 56f 56f
9:00 0.3ft 3s 9 11 mph 1017.3mb 55f 57f
8:00 0.7ft 3s 4 7 mph 1017.4mb 55f 57f
7:00 0.7ft 2s 7 11 mph 1016.5mb 55f 56f
6:00 0.3ft 3s 11 13 mph 1016mb 56f 56f
5:00 0.7ft 3s 7 11 mph 1014.7mb 56f 56f
4:00 0.3ft 2s 4 7 mph 1013.8mb 57f 57f
3:00 0.3ft 4s 2 4 mph 1013.3mb 57f 58f
2:00 0.3ft 4s 2 4 mph 1013.1mb 57f 59f